Time;durP1;ratioP1;P1;durP2;ratioP2;P2;SDS_P1;SDS_P2;PMS_P1;PMS_P2;Temp;Humidity;BMP_temperature;BMP_pressure;BME280_temperature;BME280_humidity;BME280_pressure;Samples;Min_cycle;Max_cycle;Signal;HPM_P1;HPM_P2
2023/04/09 00:00:42;;;;;;;;;33.50;28.75;;;;;12.55;50.27;101838.72;5026982;28;45324;-59
2023/04/09 00:03:08;;;;;;;;;35.75;25.25;;;;;12.58;49.78;101860.28;5032913;28;45063;-58
2023/04/09 00:05:40;;;;;;;;;25.25;25.00;;;;;12.57;50.46;101841.44;5034387;28;45171;-59
2023/04/09 00:08:06;;;;;;;;;25.00;24.00;;;;;12.64;50.83;101856.91;5035511;28;44982;-58
2023/04/09 00:10:31;;;;;;;;;34.75;27.00;;;;;12.60;50.29;101849.59;5035138;28;45092;-60
2023/04/09 00:12:56;;;;;;;;;29.50;23.50;;;;;12.63;50.97;101855.97;5033188;28;45892;-58
2023/04/09 00:15:22;;;;;;;;;24.00;23.75;;;;;12.59;49.99;101847.75;5033825;28;53110;-62
2023/04/09 00:17:47;;;;;;;;;33.00;27.00;;;;;12.52;50.12;101831.50;5034090;28;45171;-59
2023/04/09 00:20:13;;;;;;;;;25.25;22.00;;;;;12.61;50.17;101855.03;5034063;28;45044;-59
2023/04/09 00:22:38;;;;;;;;;28.25;27.25;;;;;12.51;50.75;101831.44;5032766;28;50509;-59
2023/04/09 00:25:04;;;;;;;;;32.75;26.25;;;;;12.54;50.70;101844.94;5031458;28;45243;-58
2023/04/09 00:27:29;;;;;;;;;21.00;21.00;;;;;12.57;50.62;101849.50;5032717;28;45122;-60
2023/04/09 00:29:55;;;;;;;;;31.50;24.50;;;;;12.35;50.26;101796.00;5031925;28;45242;-59
2023/04/09 00:32:20;;;;;;;;;28.00;21.50;;;;;12.58;50.20;101845.97;5032998;28;45306;-61
2023/04/09 00:34:46;;;;;;;;;31.25;20.50;;;;;12.54;51.06;101835.13;5033212;28;45523;-61
2023/04/09 00:37:11;;;;;;;;;32.50;25.75;;;;;12.59;51.39;101842.41;5031634;28;44965;-59
2023/04/09 00:39:36;;;;;;;;;28.50;24.25;;;;;12.49;50.75;101820.66;5032406;28;45429;-60
2023/04/09 00:42:02;;;;;;;;;26.25;25.00;;;;;12.50;50.44;101818.88;5033771;28;45616;-59
2023/04/09 00:44:27;;;;;;;;;37.00;29.00;;;;;12.57;50.98;101836.97;5034206;28;45334;-61
2023/04/09 00:46:54;;;;;;;;;25.75;24.50;;;;;12.47;50.28;101821.44;5033202;28;45166;-60
2023/04/09 00:49:20;;;;;;;;;28.25;24.75;;;;;12.55;51.05;101841.38;5033749;28;45010;-59
2023/04/09 00:51:47;;;;;;;;;28.75;24.25;;;;;12.54;50.98;101832.44;5015158;28;46225;-59
2023/04/09 00:54:13;;;;;;;;;28.25;27.75;;;;;12.54;50.46;101836.91;5015125;28;45218;-67
2023/04/09 00:56:39;;;;;;;;;30.75;21.00;;;;;12.55;51.14;101836.03;5033346;28;45150;-60
2023/04/09 00:59:04;;;;;;;;;28.00;25.00;;;;;12.49;51.32;101828.69;5033952;28;44912;-63
2023/04/09 01:01:30;;;;;;;;;29.00;26.75;;;;;12.33;50.97;101800.41;5032959;28;45449;-61
2023/04/09 01:03:56;;;;;;;;;29.50;21.50;;;;;12.41;51.07;101815.88;5031349;28;45005;-61
2023/04/09 01:06:51;;;;;;;;;32.75;26.75;;;;;12.48;50.82;101844.72;5032831;28;44934;-60
2023/04/09 01:09:16;;;;;;;;;29.00;22.25;;;;;12.47;51.81;101841.13;5032319;28;45070;-58
2023/04/09 01:12:01;;;;;;;;;27.25;24.25;;;;;12.41;51.22;101822.16;5031069;28;47004;-59
2023/04/09 01:14:35;;;;;;;;;29.75;27.00;;;;;12.31;51.25;101818.22;5032010;28;45422;-62
2023/04/09 01:17:09;;;;;;;;;31.50;25.25;;;;;12.36;51.28;101829.09;5031483;28;45074;-60
2023/04/09 01:19:56;;;;;;;;;31.50;24.25;;;;;12.34;51.78;101822.75;5029896;28;45409;-59
2023/04/09 01:22:46;;;;;;;;;26.00;24.50;;;;;12.31;51.45;101822.69;5032053;28;45936;-61
2023/04/09 01:25:44;;;;;;;;;27.00;26.25;;;;;12.25;51.61;101827.81;5031018;28;45269;-59
2023/04/09 01:28:19;;;;;;;;;30.25;25.75;;;;;12.23;52.28;101827.75;5033276;28;44977;-61
2023/04/09 01:30:49;;;;;;;;;27.75;24.50;;;;;12.19;52.02;101824.88;5032344;28;44910;-59
2023/04/09 01:33:18;;;;;;;;;26.00;23.75;;;;;12.25;51.90;101822.44;5032593;28;45532;-60
2023/04/09 01:35:46;;;;;;;;;27.75;24.50;;;;;12.25;51.78;101827.81;5032585;28;45064;-59
2023/04/09 01:38:13;;;;;;;;;29.00;23.25;;;;;12.11;52.04;101792.44;5032688;28;45089;-61
2023/04/09 01:40:39;;;;;;;;;34.00;27.00;;;;;12.24;51.64;101818.84;5031802;28;44975;-61
2023/04/09 01:43:06;;;;;;;;;32.00;30.00;;;;;12.18;51.34;101805.22;5032061;28;45003;-59
2023/04/09 01:45:32;;;;;;;;;31.50;22.00;;;;;12.24;52.82;101818.84;5031329;28;45324;-61
2023/04/09 01:47:59;;;;;;;;;38.75;29.75;;;;;12.23;52.03;101816.13;5030149;28;45003;-59
2023/04/09 01:50:24;;;;;;;;;30.50;27.25;;;;;12.15;52.06;101803.34;5029331;28;45262;-58
2023/04/09 01:52:50;;;;;;;;;32.50;25.00;;;;;12.10;51.93;101788.88;5031013;28;45239;-58
2023/04/09 01:55:15;;;;;;;;;35.50;27.50;;;;;12.23;51.87;101811.66;5029766;28;45464;-64
2023/04/09 01:57:41;;;;;;;;;26.75;24.00;;;;;12.27;51.88;101818.94;5029611;28;45157;-62
2023/04/09 02:00:08;;;;;;;;;25.50;16.75;;;;;12.23;51.95;101810.75;5031276;28;45241;-60
2023/04/09 02:02:45;;;;;;;;;32.00;24.25;;;;;12.25;52.60;101809.94;5018102;28;46338;-59
2023/04/09 02:05:17;;;;;;;;;25.75;23.25;;;;;12.25;51.92;101809.94;5022442;28;45217;-60
2023/04/09 02:07:46;;;;;;;;;26.25;24.00;;;;;12.23;52.72;101811.66;5029065;28;45495;-59
2023/04/09 02:10:12;;;;;;;;;32.50;25.75;;;;;12.17;52.03;101800.72;5031428;28;45204;-63
2023/04/09 02:12:44;;;;;;;;;34.50;23.50;;;;;12.16;52.43;101804.28;5029713;28;45099;-60
2023/04/09 02:15:11;;;;;;;;;25.50;22.25;;;;;12.15;52.75;101803.34;5029994;28;45230;-60
2023/04/09 02:17:36;;;;;;;;;37.25;28.25;;;;;12.16;52.27;101804.28;5030702;28;45089;-59
2023/04/09 02:20:02;;;;;;;;;37.00;26.00;;;;;12.09;53.05;101795.09;5032008;28;45033;-59
2023/04/09 02:22:27;;;;;;;;;29.75;27.00;;;;;11.96;53.03;101777.66;5031417;28;46310;-61
2023/04/09 02:24:53;;;;;;;;;31.75;26.75;;;;;12.09;52.47;101788.81;5031281;28;45583;-60
2023/04/09 02:27:18;;;;;;;;;38.25;30.25;;;;;12.05;53.08;101784.22;5028993;28;47935;-59
2023/04/09 02:29:44;;;;;;;;;26.00;25.25;;;;;12.10;52.68;101791.53;5030511;28;44966;-60
2023/04/09 02:32:09;;;;;;;;;30.25;25.75;;;;;12.04;52.78;101777.91;5028999;28;46141;-59
2023/04/09 02:34:34;;;;;;;;;38.50;28.75;;;;;12.04;52.42;101785.94;5030939;28;44942;-62
2023/04/09 02:37:00;;;;;;;;;39.25;29.75;;;;;11.86;52.51;101755.78;5032678;28;44982;-59
2023/04/09 02:39:26;;;;;;;;;29.50;26.25;;;;;11.94;52.66;101782.00;5030156;28;45404;-59
2023/04/09 02:41:51;;;;;;;;;36.25;31.75;;;;;11.94;53.65;101778.44;5028682;28;45757;-61
2023/04/09 02:44:17;;;;;;;;;36.50;28.50;;;;;11.81;53.67;101763.63;5029143;28;45155;-60
2023/04/09 02:46:43;;;;;;;;;34.75;25.00;;;;;11.75;53.45;101752.72;5027994;28;46930;-62
2023/04/09 02:49:09;;;;;;;;;38.50;26.00;;;;;11.79;54.01;101766.25;5025601;28;45239;-60
2023/04/09 02:51:34;;;;;;;;;29.00;27.50;;;;;11.87;54.05;101774.59;5030657;28;50599;-65
2023/04/09 02:54:00;;;;;;;;;32.00;29.75;;;;;11.84;54.05;101782.50;5030894;28;45159;-58
2023/04/09 02:56:25;;;;;;;;;27.25;27.25;;;;;11.83;53.77;101780.69;5031443;28;45090;-60
2023/04/09 02:58:52;;;;;;;;;38.25;29.00;;;;;11.70;54.00;101765.03;5030376;28;45238;-60
2023/04/09 03:01:18;;;;;;;;;31.75;27.25;;;;;11.74;53.79;101770.53;5031823;28;47157;-60
2023/04/09 03:03:44;;;;;;;;;30.25;25.25;;;;;11.80;53.38;101769.88;5030761;28;45068;-59
2023/04/09 03:06:09;;;;;;;;;34.75;27.25;;;;;11.75;54.22;101774.13;5022065;28;45363;-60
2023/04/09 03:08:35;;;;;;;;;29.50;27.50;;;;;11.64;54.27;101763.00;5026606;28;45583;-59
2023/04/09 03:11:00;;;;;;;;;26.00;25.25;;;;;11.69;54.20;101755.16;5015505;28;46254;-59
2023/04/09 03:13:28;;;;;;;;;30.00;28.50;;;;;11.57;53.77;101743.13;5025087;28;45267;-59
2023/04/09 03:15:54;;;;;;;;;37.25;27.75;;;;;11.69;54.83;101764.09;5022399;28;45386;-59
2023/04/09 03:18:19;;;;;;;;;36.00;30.50;;;;;11.69;54.71;101757.81;5023138;28;45313;-60
2023/04/09 03:20:44;;;;;;;;;34.50;28.00;;;;;11.55;54.14;101734.13;5022126;28;47566;-58
2023/04/09 03:23:10;;;;;;;;;28.50;22.75;;;;;11.64;54.79;101762.09;5034710;28;45121;-62
2023/04/09 03:25:36;;;;;;;;;32.00;29.50;;;;;11.66;54.05;101766.63;5034121;28;45185;-60
2023/04/09 03:28:02;;;;;;;;;28.50;26.75;;;;;11.57;54.72;101752.94;5033419;28;45283;-59
2023/04/09 03:30:27;;;;;;;;;29.75;27.50;;;;;11.65;54.23;101762.16;5035765;28;45106;-60
2023/04/09 03:32:53;;;;;;;;;36.25;32.00;;;;;11.64;54.77;101754.06;5034603;28;45142;-59
2023/04/09 03:35:18;;;;;;;;;36.75;27.00;;;;;11.47;54.04;101724.00;5034649;28;45115;-58
2023/04/09 03:37:43;;;;;;;;;33.25;28.75;;;;;11.69;53.77;101760.50;5035663;28;45097;-59
2023/04/09 03:40:09;;;;;;;;;37.50;25.75;;;;;11.42;54.37;101718.47;5034367;28;45528;-61
2023/04/09 03:42:36;;;;;;;;;43.25;31.25;;;;;11.66;54.78;101755.94;5032715;28;45136;-58
2023/04/09 03:45:02;;;;;;;;;36.00;31.25;;;;;11.64;54.82;101752.28;5033963;28;44856;-58
2023/04/09 03:47:27;;;;;;;;;30.00;27.75;;;;;11.48;53.98;101724.03;5034178;28;45423;-60
2023/04/09 03:49:53;;;;;;;;;38.50;27.50;;;;;11.52;54.61;101739.34;5032384;28;55810;-62
2023/04/09 03:52:18;;;;;;;;;32.50;29.75;;;;;11.52;54.58;101738.47;5031879;28;45105;-60
2023/04/09 03:54:44;;;;;;;;;39.75;30.50;;;;;11.42;53.97;101721.13;5034453;28;45016;-58
2023/04/09 03:57:09;;;;;;;;;38.50;28.75;;;;;11.49;54.91;101735.66;5034837;28;45060;-59
2023/04/09 03:59:34;;;;;;;;;35.50;27.50;;;;;11.51;54.70;101736.63;5034817;28;45419;-60
2023/04/09 04:02:00;;;;;;;;;19.50;17.25;;;;;11.58;54.58;101746.69;5028227;28;45103;-59
2023/04/09 04:04:25;;;;;;;;;35.75;26.75;;;;;11.58;54.49;101749.38;5014203;28;45219;-59
2023/04/09 04:06:52;;;;;;;;;36.75;31.75;;;;;11.53;54.76;101727.81;5014807;28;45157;-60
2023/04/09 04:09:17;;;;;;;;;38.50;31.00;;;;;11.04;54.65;101649.25;5014317;28;45235;-60
2023/04/09 04:11:43;;;;;;;;;29.75;27.50;;;;;11.57;55.26;101740.44;5029400;28;45159;-61
2023/04/09 04:14:08;;;;;;;;;40.75;30.50;;;;;11.52;54.86;101733.09;5033390;28;45134;-61
2023/04/09 04:16:33;;;;;;;;;37.25;32.50;;;;;11.41;55.02;101709.50;5034012;28;44961;-61
2023/04/09 04:18:59;;;;;;;;;40.75;32.50;;;;;11.50;55.34;101719.66;5032509;28;45826;-61
2023/04/09 04:21:24;;;;;;;;;31.75;31.50;;;;;11.53;55.34;101719.78;5032571;28;44903;-58
2023/04/09 04:23:50;;;;;;;;;39.25;30.75;;;;;11.36;55.09;101711.09;5033410;28;45025;-59
2023/04/09 04:26:15;;;;;;;;;38.00;29.00;;;;;11.34;55.15;101706.56;5031804;28;45180;-59
2023/04/09 04:28:40;;;;;;;;;31.00;25.25;;;;;11.37;55.17;101714.69;5024578;28;47044;-59
2023/04/09 04:31:10;;;;;;;;;36.75;28.75;;;;;11.47;55.34;101732.94;5032268;28;59953;-59
2023/04/09 04:33:38;;;;;;;;;42.00;32.00;;;;;11.46;55.31;101738.22;5032359;28;45170;-64
2023/04/09 04:36:05;;;;;;;;;43.25;31.00;;;;;11.42;55.51;101740.78;5033065;28;45189;-59
2023/04/09 04:38:31;;;;;;;;;41.75;33.25;;;;;11.41;55.08;101738.03;5031791;28;46825;-60
2023/04/09 04:40:56;;;;;;;;;34.75;31.25;;;;;11.39;55.78;101742.41;5031303;28;45191;-60
2023/04/09 04:43:21;;;;;;;;;43.50;31.00;;;;;11.28;55.10;101733.97;5022433;28;45422;-59
2023/04/09 04:45:47;;;;;;;;;40.50;33.25;;;;;11.11;55.53;101711.91;5017741;28;45444;-60
2023/04/09 04:48:12;;;;;;;;;39.75;33.75;;;;;11.31;55.53;101750.13;5011420;28;45445;-59
2023/04/09 04:50:37;;;;;;;;;42.00;32.75;;;;;11.30;55.44;101759.03;5008101;28;45344;-60
2023/04/09 04:53:03;;;;;;;;;48.50;34.75;;;;;11.17;56.32;101730.88;4999188;28;45486;-59
2023/04/09 04:55:28;;;;;;;;;47.00;34.50;;;;;11.25;55.93;101747.22;4998958;28;45301;-60
2023/04/09 04:57:53;;;;;;;;;44.00;31.75;;;;;11.28;55.40;101752.69;5008377;28;60378;-59
2023/04/09 05:00:19;;;;;;;;;37.75;33.25;;;;;11.28;55.92;101760.72;5032633;28;45085;-59
2023/04/09 05:02:44;;;;;;;;;37.00;32.00;;;;;11.23;55.36;101747.16;5033049;28;46154;-59
2023/04/09 05:05:10;;;;;;;;;44.75;34.50;;;;;11.25;55.46;101750.81;5033095;28;45115;-58
2023/04/09 05:07:35;;;;;;;;;35.25;31.25;;;;;11.31;55.37;101759.94;5014838;28;47602;-58
2023/04/09 05:10:00;;;;;;;;;42.75;32.50;;;;;11.32;56.09;101768.03;5026773;28;45569;-58
2023/04/09 05:12:26;;;;;;;;;37.75;31.00;;;;;11.27;55.66;101752.63;5015613;28;45284;-59
2023/04/09 05:14:51;;;;;;;;;41.50;34.50;;;;;11.23;55.72;101764.97;5017364;28;45332;-60
2023/04/09 05:17:16;;;;;;;;;39.50;31.00;;;;;11.25;56.00;101769.53;5032658;28;51506;-58
2023/04/09 05:19:42;;;;;;;;;37.00;30.75;;;;;11.12;55.77;101745.84;5024316;28;45388;-59
2023/04/09 05:22:07;;;;;;;;;36.50;32.00;;;;;11.24;55.63;101766.81;5024722;28;45390;-60
2023/04/09 05:24:32;;;;;;;;;43.00;35.00;;;;;11.04;55.19;101740.16;5032540;28;45633;-59
2023/04/09 05:26:58;;;;;;;;;40.25;33.75;;;;;11.12;55.21;101755.59;5031824;28;46455;-59
2023/04/09 05:29:23;;;;;;;;;33.75;27.75;;;;;11.16;55.71;101771.84;5030388;28;45010;-60
2023/04/09 05:31:49;;;;;;;;;47.75;32.25;;;;;11.16;55.92;101762.91;5029101;28;45112;-60
2023/04/09 05:34:14;;;;;;;;;46.25;34.00;;;;;11.11;55.83;101754.69;5030982;28;45106;-60
2023/04/09 05:36:40;;;;;;;;;44.00;36.50;;;;;11.21;55.85;101774.69;5029860;28;46514;-58
2023/04/09 05:39:05;;;;;;;;;38.25;32.00;;;;;11.12;55.67;101752.91;5030800;28;44964;-59
2023/04/09 05:41:32;;;;;;;;;42.00;33.50;;;;;11.22;56.25;101766.75;5032110;28;44867;-59
2023/04/09 05:43:57;;;;;;;;;40.00;33.00;;;;;11.21;56.14;101775.59;5032356;28;45096;-59
2023/04/09 05:46:23;;;;;;;;;36.25;34.25;;;;;11.27;55.84;101774.03;5029882;28;45626;-62
2023/04/09 05:48:48;;;;;;;;;43.25;33.50;;;;;11.25;55.82;101781.97;5031449;28;45205;-59
2023/04/09 05:51:14;;;;;;;;;44.00;33.50;;;;;11.15;56.07;101750.38;5029208;28;45139;-58
2023/04/09 05:53:40;;;;;;;;;41.75;29.75;;;;;11.28;55.84;101771.41;5030170;28;44895;-58
2023/04/09 05:56:15;;;;;;;;;42.50;29.25;;;;;11.28;55.79;101770.50;5030148;28;45367;-59
2023/04/09 05:58:40;;;;;;;;;39.50;31.75;;;;;11.17;56.04;101746.00;5031669;28;45540;-59
2023/04/09 06:01:06;;;;;;;;;40.50;31.25;;;;;11.24;55.46;101764.13;5030438;28;45100;-59
2023/04/09 06:03:31;;;;;;;;;51.50;35.75;;;;;11.34;55.48;101782.38;5029563;28;45296;-58
2023/04/09 06:05:56;;;;;;;;;39.50;31.50;;;;;11.32;55.71;101784.06;5031033;28;45302;-58
2023/04/09 06:08:22;;;;;;;;;41.50;34.25;;;;;11.39;55.96;101793.25;5030544;28;45058;-59
2023/04/09 06:10:47;;;;;;;;;38.75;33.00;;;;;11.39;55.53;101791.47;5031683;28;44937;-61
2023/04/09 06:13:12;;;;;;;;;36.75;31.50;;;;;11.22;55.54;101765.84;5030930;28;45242;-58
2023/04/09 06:15:38;;;;;;;;;43.50;33.25;;;;;11.38;55.86;101794.09;5029248;28;45419;-60
2023/04/09 06:18:03;;;;;;;;;46.50;36.00;;;;;11.36;55.08;101794.03;5030460;28;45237;-59
2023/04/09 06:20:29;;;;;;;;;25.75;20.25;;;;;11.35;55.62;101793.97;5032008;28;45253;-59
2023/04/09 06:22:54;;;;;;;;;38.75;32.75;;;;;11.32;55.34;101793.84;5032636;28;45053;-61
2023/04/09 06:25:20;;;;;;;;;45.00;34.50;;;;;11.26;55.62;101778.47;5025945;28;45527;-63
2023/04/09 06:27:45;;;;;;;;;45.00;34.75;;;;;11.33;55.46;101791.22;5032262;28;44950;-61
2023/04/09 06:30:11;;;;;;;;;37.50;31.75;;;;;11.36;56.27;101794.03;5031883;28;45339;-59
2023/04/09 06:32:36;;;;;;;;;41.25;34.75;;;;;11.35;55.84;101796.66;5031948;28;45013;-60
2023/04/09 06:35:03;;;;;;;;;49.00;38.25;;;;;11.40;55.84;101800.41;5022368;28;46113;-61
2023/04/09 06:37:29;;;;;;;;;46.50;36.50;;;;;11.38;55.90;101800.38;5024468;28;45367;-59
2023/04/09 06:39:54;;;;;;;;;38.75;33.50;;;;;11.25;55.67;101771.28;5028048;28;45281;-58
2023/04/09 06:42:19;;;;;;;;;38.50;33.50;;;;;11.37;55.67;101786.94;5030266;28;45191;-59
2023/04/09 06:44:45;;;;;;;;;44.75;33.00;;;;;11.44;56.21;101795.25;5030831;28;45926;-62
2023/04/09 06:47:10;;;;;;;;;41.50;34.00;;;;;11.48;55.22;101798.06;5029386;28;45109;-58
2023/04/09 06:49:36;;;;;;;;;37.25;34.00;;;;;11.37;55.67;101781.59;5027722;28;45463;-59
2023/04/09 06:52:02;;;;;;;;;42.25;33.75;;;;;11.53;55.86;101796.47;5032658;28;45414;-60
2023/04/09 06:54:27;;;;;;;;;41.50;32.50;;;;;11.50;55.65;101782.97;5031297;28;47080;-61
2023/04/09 06:56:53;;;;;;;;;47.75;37.25;;;;;11.57;56.02;101791.28;5032391;28;45103;-59
2023/04/09 06:59:18;;;;;;;;;44.75;37.50;;;;;11.49;55.37;101765.09;5032297;28;45135;-59
2023/04/09 07:01:43;;;;;;;;;51.75;38.50;;;;;11.67;56.12;101803.28;5027354;28;45263;-63
2023/04/09 07:04:09;;;;;;;;;48.75;35.25;;;;;11.72;54.85;101803.47;5020618;28;45288;-61
2023/04/09 07:06:34;;;;;;;;;47.75;34.00;;;;;11.75;54.64;101793.78;5022227;28;45330;-60
2023/04/09 07:09:00;;;;;;;;;43.00;33.25;;;;;11.79;54.34;101800.16;5029853;28;45198;-58
2023/04/09 07:11:25;;;;;;;;;47.75;35.75;;;;;11.82;54.23;101805.63;5028394;28;45305;-59
2023/04/09 07:13:50;;;;;;;;;45.50;34.50;;;;;11.80;54.34;101789.50;5028730;28;44992;-59
2023/04/09 07:16:16;;;;;;;;;48.25;36.75;;;;;11.88;54.21;101796.91;5029366;28;45367;-60
2023/04/09 07:18:41;;;;;;;;;49.50;36.50;;;;;11.90;54.58;101793.44;5024203;28;45354;-60
2023/04/09 07:21:06;;;;;;;;;45.00;36.50;;;;;11.89;54.79;101783.56;5026239;28;45445;-59
2023/04/09 07:23:35;;;;;;;;;51.50;38.75;;;;;12.04;54.76;101796.66;5028669;28;46093;-58
2023/04/09 07:26:04;;;;;;;;;44.75;34.50;;;;;11.97;54.34;101771.41;5029243;28;45028;-59
2023/04/09 07:28:30;;;;;;;;;48.50;37.50;;;;;12.17;54.80;101800.72;5031373;28;45009;-60
2023/04/09 07:30:55;;;;;;;;;46.00;36.00;;;;;12.22;54.32;101788.38;5016436;28;45275;-59
2023/04/09 07:33:21;;;;;;;;;47.25;37.00;;;;;12.31;54.06;101794.09;5030084;28;47278;-59
2023/04/09 07:35:46;;;;;;;;;45.75;36.00;;;;;12.36;54.13;101788.91;5031557;28;45205;-58
2023/04/09 07:38:11;;;;;;;;;51.00;38.50;;;;;12.41;53.82;101789.97;5028245;28;45704;-60
2023/04/09 07:40:37;;;;;;;;;41.75;35.00;;;;;12.48;53.93;101792.00;5012840;28;45090;-59
2023/04/09 07:43:03;;;;;;;;;49.75;34.25;;;;;12.57;53.74;101791.41;5029559;28;46323;-59
2023/04/09 07:45:28;;;;;;;;;48.75;37.50;;;;;12.62;53.84;101792.50;5031107;28;45120;-60
2023/04/09 07:47:54;;;;;;;;;47.25;36.75;;;;;12.52;53.16;101755.50;5030056;28;45002;-60
2023/04/09 07:50:19;;;;;;;;;48.25;35.25;;;;;12.82;52.92;101797.63;5032085;28;44834;-59
2023/04/09 07:52:45;;;;;;;;;51.75;36.75;;;;;12.90;52.98;101793.44;5030705;28;45555;-59
2023/04/09 07:55:10;;;;;;;;;48.25;37.00;;;;;12.90;53.32;101791.69;5009345;28;45188;-60
2023/04/09 07:57:36;;;;;;;;;47.50;38.25;;;;;12.99;53.03;101787.47;5033282;28;45269;-59
2023/04/09 08:00:02;;;;;;;;;48.00;40.00;;;;;13.09;52.44;101800.34;5033219;28;45218;-60
2023/04/09 08:02:28;;;;;;;;;49.00;36.50;;;;;13.14;52.18;101798.72;5033320;28;46143;-59
2023/04/09 08:04:53;;;;;;;;;50.25;37.25;;;;;13.18;52.39;101797.03;5033450;28;44975;-60
2023/04/09 08:07:19;;;;;;;;;50.00;38.75;;;;;13.21;51.99;101786.41;5032866;28;46512;-59
2023/04/09 08:09:44;;;;;;;;;44.00;33.25;;;;;13.35;51.55;101789.59;5033719;28;45571;-61
2023/04/09 08:12:10;;;;;;;;;47.00;36.50;;;;;13.36;52.33;101797.66;5031889;28;45958;-62
2023/04/09 08:14:35;;;;;;;;;40.00;34.25;;;;;13.44;52.35;101787.16;5033070;28;45215;-58
2023/04/09 08:17:01;;;;;;;;;52.00;39.25;;;;;13.50;51.43;101794.53;5033097;28;45161;-58
2023/04/09 08:19:26;;;;;;;;;45.75;35.75;;;;;13.63;51.57;101797.63;5030974;28;45156;-60
2023/04/09 08:21:51;;;;;;;;;46.25;35.25;;;;;13.72;51.00;101794.28;5012986;28;45061;-65
2023/04/09 08:24:17;;;;;;;;;44.50;36.50;;;;;13.78;51.10;101775.69;5020050;28;45278;-60
2023/04/09 08:26:43;;;;;;;;;43.00;32.00;;;;;13.94;50.81;101800.31;5031517;28;45277;-60
2023/04/09 08:29:10;;;;;;;;;50.25;38.25;;;;;14.01;50.57;101789.78;5031450;28;44876;-59
2023/04/09 08:31:36;;;;;;;;;42.00;34.25;;;;;14.08;50.47;101790.88;5032574;28;45557;-59
2023/04/09 08:34:02;;;;;;;;;47.75;34.25;;;;;14.24;50.45;101792.22;5033027;28;45427;-61
2023/04/09 08:36:27;;;;;;;;;45.25;33.00;;;;;14.24;49.57;101789.53;5033157;28;45028;-59
2023/04/09 08:38:54;;;;;;;;;39.25;30.00;;;;;14.30;49.87;101784.31;5034333;28;45407;-60
2023/04/09 08:41:23;;;;;;;;;41.75;33.00;;;;;14.42;50.06;101783.78;5013378;28;45758;-59
2023/04/09 08:43:50;;;;;;;;;38.25;31.75;;;;;14.43;49.38;101765.84;5013529;28;45788;-59
2023/04/09 08:46:16;;;;;;;;;39.75;31.75;;;;;14.54;48.64;101785.88;4996615;28;45285;-60
2023/04/09 08:48:46;;;;;;;;;44.00;33.00;;;;;14.47;48.92;101765.97;5015792;28;45365;-59
2023/04/09 08:51:13;;;;;;;;;35.75;30.00;;;;;14.54;48.58;101778.69;5004193;28;45510;-59
2023/04/09 08:53:43;;;;;;;;;31.50;29.50;;;;;14.45;48.74;101769.47;5015500;28;45488;-61
2023/04/09 08:56:09;;;;;;;;;39.25;31.75;;;;;14.56;49.00;101779.66;4994866;28;45393;-61
2023/04/09 08:58:34;;;;;;;;;36.75;29.00;;;;;14.66;48.34;101769.19;5013134;28;45725;-62
2023/04/09 09:01:00;;;;;;;;;28.50;26.75;;;;;14.73;48.04;101779.22;5015419;28;46217;-62
2023/04/09 09:03:25;;;;;;;;;34.00;27.50;;;;;14.77;47.87;101756.91;5015283;28;45414;-59
2023/04/09 09:05:51;;;;;;;;;34.00;25.75;;;;;14.94;47.53;101768.09;5014599;28;48095;-58
2023/04/09 09:08:24;;;;;;;;;28.75;26.50;;;;;15.06;47.13;101762.09;4997495;28;45955;-60
2023/04/09 09:10:50;;;;;;;;;24.50;23.50;;;;;15.20;46.84;101757.06;5010031;28;45516;-62
2023/04/09 09:13:26;;;;;;;;;25.50;22.50;;;;;15.38;46.49;101754.78;5005291;28;45756;-59
2023/04/09 09:16:11;;;;;;;;;27.75;25.50;;;;;15.48;46.27;101750.53;5009288;28;45414;-58
2023/04/09 09:18:39;;;;;;;;;26.50;22.00;;;;;15.67;45.59;101754.50;4992613;28;45432;-58
2023/04/09 09:21:15;;;;;;;;;31.50;24.00;;;;;15.72;45.49;101755.50;5014449;28;46527;-59
2023/04/09 09:23:41;;;;;;;;;37.50;31.25;;;;;15.63;44.82;101729.28;5013055;28;45500;-57
2023/04/09 09:26:17;;;;;;;;;24.25;22.25;;;;;15.82;45.06;101751.25;4996095;28;45671;-58
2023/04/09 09:28:44;;;;;;;;;31.75;25.75;;;;;15.95;44.42;101752.44;5007489;28;45572;-57
2023/04/09 09:31:11;;;;;;;;;24.00;21.50;;;;;15.85;44.04;101719.00;5014399;28;45494;-58
2023/04/09 09:33:37;;;;;;;;;29.50;21.50;;;;;16.07;43.88;101750.00;5014779;28;45731;-57
2023/04/09 09:36:03;;;;;;;;;24.75;23.00;;;;;16.02;44.23;101751.69;4999489;28;45536;-59
2023/04/09 09:38:29;;;;;;;;;28.50;22.25;;;;;16.16;44.27;101741.19;5014412;28;45352;-60
2023/04/09 09:40:54;;;;;;;;;27.25;18.50;;;;;16.30;44.38;101739.66;5014738;28;47427;-59
2023/04/09 09:43:20;;;;;;;;;26.75;21.00;;;;;16.38;43.67;101712.81;5014802;28;45284;-59
2023/04/09 09:45:47;;;;;;;;;25.75;23.25;;;;;16.56;43.02;101729.34;5002007;28;45770;-59
2023/04/09 09:48:12;;;;;;;;;22.00;21.50;;;;;16.65;43.43;101731.28;5014373;28;45410;-60
2023/04/09 09:50:42;;;;;;;;;29.50;21.75;;;;;16.76;42.95;101729.69;5010450;28;46157;-60
2023/04/09 09:53:09;;;;;;;;;31.25;24.75;;;;;16.77;42.61;101715.28;5002944;28;45697;-58
2023/04/09 09:55:42;;;;;;;;;27.75;22.50;;;;;16.91;41.90;101722.72;5002725;28;45472;-62
2023/04/09 09:58:21;;;;;;;;;26.00;21.25;;;;;16.97;42.51;101725.53;5011040;28;45478;-61
2023/04/09 10:00:47;;;;;;;;;23.75;17.75;;;;;17.03;42.21;101719.34;4999452;28;45593;-62
2023/04/09 10:03:20;;;;;;;;;22.75;17.50;;;;;17.18;41.99;101727.66;5013235;28;45626;-60
2023/04/09 10:05:48;;;;;;;;;26.00;22.25;;;;;17.15;40.88;101724.91;5016546;28;45358;-61
2023/04/09 10:08:14;;;;;;;;;21.25;18.25;;;;;17.21;41.03;101715.97;5014250;28;45454;-61
2023/04/09 10:10:43;;;;;;;;;17.75;17.75;;;;;17.30;40.41;101721.53;5015886;28;45582;-61
2023/04/09 10:13:30;;;;;;;;;15.00;14.67;;;;;17.22;40.59;101710.59;5015567;28;45697;-61
2023/04/09 10:15:56;;;;;;;;;20.50;18.50;;;;;17.23;40.48;101690.81;5015634;28;45520;-60
2023/04/09 10:18:22;;;;;;;;;23.50;20.00;;;;;17.47;40.32;101711.88;4997077;28;45454;-59
2023/04/09 10:21:21;;;;;;;;;17.00;14.33;;;;;17.60;39.85;101704.81;5013422;28;45517;-62
2023/04/09 10:23:49;;;;;;;;;21.00;17.00;;;;;17.59;39.78;101692.19;5011062;28;45483;-62
2023/04/09 10:26:17;;;;;;;;;18.25;14.75;;;;;17.69;39.43;101690.53;5013836;28;45534;-60
2023/04/09 10:28:42;;;;;;;;;17.00;13.75;;;;;17.74;39.05;101704.09;5014148;28;45516;-60
2023/04/09 10:31:08;;;;;;;;;15.00;14.25;;;;;17.72;39.24;101685.16;5013864;28;45553;-61
2023/04/09 10:33:36;;;;;;;;;14.00;12.33;;;;;17.73;38.60;101686.94;5013500;28;45394;-63
2023/04/09 10:36:09;;;;;;;;;14.00;12.00;;;;;17.85;37.94;101697.94;5014276;28;45465;-60
2023/04/09 10:38:39;;;;;;;;;10.75;10.00;;;;;17.86;38.06;101709.63;5014557;28;45478;-62
2023/04/09 10:41:26;;;;;;;;;16.33;14.67;;;;;17.95;38.16;101698.03;5012914;28;46645;-61
2023/04/09 10:43:52;;;;;;;;;16.33;15.67;;;;;17.96;37.86;101702.56;5014109;28;45449;-60
2023/04/09 10:46:26;;;;;;;;;22.75;17.50;;;;;17.96;37.68;101700.78;5013983;28;45465;-64
2023/04/09 10:49:12;;;;;;;;;17.25;17.25;;;;;17.94;37.42;101690.84;5014033;28;45477;-61
2023/04/09 10:51:38;;;;;;;;;19.75;15.50;;;;;17.97;37.38;101691.78;5013979;28;46207;-62
2023/04/09 10:54:33;;;;;;;;;18.50;14.50;;;;;17.94;37.26;101696.25;5013653;28;45565;-61
2023/04/09 10:57:12;;;;;;;;;15.75;14.75;;;;;17.92;37.03;101690.81;5008838;28;45666;-60
2023/04/09 10:59:40;;;;;;;;;17.75;16.00;;;;;17.89;37.11;101682.69;5012978;28;45399;-62
2023/04/09 11:02:25;;;;;;;;;17.75;17.00;;;;;17.96;37.60;101686.34;4995389;28;46929;-60
2023/04/09 11:05:28;;;;;;;;;17.50;15.00;;;;;18.00;37.19;101680.06;5013529;28;45444;-60
2023/04/09 11:08:08;;;;;;;;;11.67;11.00;;;;;18.11;37.30;101683.81;5013772;28;45584;-60
2023/04/09 11:10:34;;;;;;;;;15.33;11.33;;;;;18.15;36.92;101687.44;5007187;28;45387;-61